Time;durP1;ratioP1;P1;durP2;ratioP2;P2;SDS_P1;SDS_P2;PMS_P1;PMS_P2;Temp;Humidity;BMP_temperature;BMP_pressure;BME280_temperature;BME280_humidity;BME280_pressure;Samples;Min_cycle;Max_cycle;Signal;HPM_P1;HPM_P2
2023/01/09 00:01:30;;;;;;;0.98;0.40;;;;;;;7.48;89.95;99314.28;4871362;29;20098;-70
2023/01/09 00:03:57;;;;;;;1.17;0.50;;;;;;;7.41;89.98;99311.91;4875557;29;20150;-69
2023/01/09 00:06:24;;;;;;;1.67;0.38;;;;;;;7.37;89.88;99312.97;4875664;29;20140;-69
2023/01/09 00:08:52;;;;;;;1.10;0.47;;;;;;;7.33;89.78;99311.38;4869714;29;20057;-69
2023/01/09 00:11:19;;;;;;;1.25;0.70;;;;;;;7.29;89.74;99317.63;4865097;29;20089;-69
2023/01/09 00:13:46;;;;;;;0.40;0.40;;;;;;;7.26;89.97;99315.16;4888553;29;20084;-68
2023/01/09 00:16:14;;;;;;;0.60;0.30;;;;;;;7.23;89.82;99316.13;4873707;29;20049;-68
2023/01/09 00:18:41;;;;;;;1.08;0.35;;;;;;;7.20;89.81;99313.66;4873811;29;20057;-69
2023/01/09 00:21:12;;;;;;;1.85;0.38;;;;;;;7.17;89.77;99313.75;4873970;29;20045;-69
2023/01/09 00:23:39;;;;;;;0.30;0.30;;;;;;;7.14;89.76;99313.88;4869681;29;20046;-69
2023/01/09 00:26:17;;;;;;;1.05;0.30;;;;;;;7.10;89.67;99310.53;4869387;29;20057;-69
2023/01/09 00:28:46;;;;;;;1.40;0.50;;;;;;;7.06;89.65;99303.72;4872705;29;20068;-69
2023/01/09 00:31:14;;;;;;;0.50;0.30;;;;;;;7.01;89.68;99305.66;4872715;29;20140;-68
2023/01/09 00:33:47;;;;;;;1.40;0.40;;;;;;;6.96;89.57;99312.88;4866055;29;20045;-68
2023/01/09 00:36:14;;;;;;;0.70;0.30;;;;;;;6.92;89.65;99317.34;4875387;29;20060;-69
2023/01/09 00:38:41;;;;;;;0.47;0.20;;;;;;;6.88;89.87;99313.16;4869300;29;20046;-69
2023/01/09 00:41:16;;;;;;;3.05;0.40;;;;;;;6.86;89.85;99322.00;4870191;29;20049;-69
2023/01/09 00:43:50;;;;;;;0.75;0.38;;;;;;;6.84;89.88;99330.78;4872337;29;20056;-69
2023/01/09 00:46:23;;;;;;;0.80;0.30;;;;;;;6.80;90.06;99326.56;4859425;29;20061;-69
2023/01/09 00:48:50;;;;;;;2.00;0.40;;;;;;;6.79;89.72;99331.88;4872983;29;20077;-68
2023/01/09 00:51:19;;;;;;;0.50;0.30;;;;;;;6.75;89.36;99332.88;4872338;29;20134;-68
2023/01/09 00:53:48;;;;;;;1.38;0.30;;;;;;;6.69;89.45;99336.59;4873181;29;20041;-68
2023/01/09 00:56:18;;;;;;;0.50;0.30;;;;;;;6.63;89.29;99337.69;4871665;29;20089;-69
2023/01/09 00:58:47;;;;;;;0.60;0.30;;;;;;;6.55;89.18;99337.13;4872223;29;20053;-68
2023/01/09 01:01:14;;;;;;;0.52;0.25;;;;;;;6.49;89.21;99330.34;4863456;29;20097;-69
2023/01/09 01:03:41;;;;;;;0.60;0.30;;;;;;;6.42;89.19;99334.13;4873944;29;20570;-69
2023/01/09 01:08:54;;;;;;;0.60;0.40;;;;;;;6.27;89.24;99346.00;4859139;29;20510;-68
2023/01/09 01:11:22;;;;;;;0.88;0.50;;;;;;;6.20;89.28;99350.59;4866381;29;20507;-68
2023/01/09 01:13:50;;;;;;;0.77;0.30;;;;;;;6.16;89.25;99350.78;4871629;29;20081;-69
2023/01/09 01:16:17;;;;;;;0.93;0.40;;;;;;;6.09;89.43;99355.38;4869969;29;20045;-68
2023/01/09 01:18:44;;;;;;;1.17;0.50;;;;;;;6.05;89.67;99348.56;4869549;29;20076;-69
2023/01/09 01:21:13;;;;;;;0.52;0.20;;;;;;;6.00;89.77;99351.28;4863141;29;20576;-69
2023/01/09 01:23:41;;;;;;;2.25;0.38;;;;;;;5.96;89.80;99361.88;4864325;29;20049;-69
2023/01/09 01:26:12;;;;;;;0.93;0.45;;;;;;;5.87;89.88;99345.63;4868114;29;21040;-69
2023/01/09 01:28:40;;;;;;;0.47;0.40;;;;;;;5.84;89.99;99353.59;4874386;29;20485;-69
2023/01/09 01:31:07;;;;;;;2.95;0.60;;;;;;;5.78;90.21;99352.94;4871011;29;20111;-68
2023/01/09 01:33:35;;;;;;;1.67;0.60;;;;;;;5.72;90.17;99349.63;4866292;29;20052;-68
2023/01/09 01:36:07;;;;;;;3.55;0.52;;;;;;;5.68;90.35;99358.50;4873605;29;20514;-68
2023/01/09 01:38:35;;;;;;;1.58;0.55;;;;;;;5.63;90.53;99360.38;4868619;29;20060;-68
2023/01/09 01:41:04;;;;;;;2.97;0.60;;;;;;;5.59;90.57;99353.56;4870345;29;20186;-68
2023/01/09 01:43:55;;;;;;;2.67;0.77;;;;;;;5.52;90.63;99359.88;4871471;29;20073;-70
2023/01/09 01:46:23;;;;;;;2.53;1.00;;;;;;;5.49;90.96;99370.47;4863475;29;20046;-68
2023/01/09 01:49:02;;;;;;;2.25;0.80;;;;;;;5.46;91.13;99367.94;4867919;29;20048;-69
2023/01/09 01:51:34;;;;;;;1.70;0.60;;;;;;;5.41;91.02;99362.88;4872430;29;20050;-69
2023/01/09 01:54:09;;;;;;;1.30;0.60;;;;;;;5.38;91.41;99361.22;4873196;29;20118;-68
2023/01/09 01:56:45;;;;;;;2.00;0.55;;;;;;;5.36;91.50;99372.59;4862283;29;20477;-68
2023/01/09 01:59:25;;;;;;;4.25;0.88;;;;;;;5.34;91.49;99370.06;4873148;29;20067;-68
2023/01/09 02:01:58;;;;;;;1.50;0.50;;;;;;;5.34;91.70;99377.06;4867888;29;20073;-68
2023/01/09 02:04:27;;;;;;;2.00;0.60;;;;;;;5.30;91.83;99381.50;4871647;29;20046;-69
2023/01/09 02:07:01;;;;;;;2.30;0.60;;;;;;;5.26;92.02;99377.28;4871917;29;20057;-68
2023/01/09 02:09:28;;;;;;;4.72;0.90;;;;;;;5.21;91.69;99380.03;4865463;29;20080;-68
2023/01/09 02:11:57;;;;;;;1.90;0.63;;;;;;;5.17;91.79;99383.66;4869823;29;20106;-68
2023/01/09 02:14:30;;;;;;;2.28;0.60;;;;;;;5.13;91.87;99379.44;4871548;29;20050;-68
2023/01/09 02:17:15;;;;;;;3.22;0.65;;;;;;;5.10;91.90;99376.91;4862602;29;20132;-70
2023/01/09 02:20:15;;;;;;;1.88;0.70;;;;;;;5.06;91.98;99370.06;4864213;29;20054;-69
2023/01/09 02:23:33;;;;;;;3.00;0.60;;;;;;;5.01;91.94;99369.38;4865474;29;20407;-69
2023/01/09 02:26:51;;;;;;;4.82;0.80;;;;;;;4.96;92.22;99370.34;4857730;29;20065;-69
2023/01/09 02:29:43;;;;;;;2.83;0.75;;;;;;;4.93;92.20;99391.34;4860020;29;20050;-69
2023/01/09 02:32:38;;;;;;;3.60;0.88;;;;;;;4.88;92.40;99377.56;4875574;29;20695;-69
2023/01/09 02:35:54;;;;;;;3.05;0.80;;;;;;;4.86;92.47;99389.81;4867786;29;20054;-69
2023/01/09 02:39:02;;;;;;;4.75;1.00;;;;;;;4.82;92.64;99390.81;4865465;29;20110;-68
2023/01/09 02:41:44;;;;;;;2.83;0.90;;;;;;;4.78;92.85;99382.19;4852950;29;20068;-69
2023/01/09 02:44:28;;;;;;;2.28;0.75;;;;;;;4.73;92.83;99373.66;4868046;29;20111;-69
2023/01/09 02:47:07;;;;;;;2.10;0.80;;;;;;;4.74;92.72;99383.22;4868856;29;20049;-69
2023/01/09 02:49:38;;;;;;;1.98;0.85;;;;;;;4.71;92.91;99383.28;4858515;29;20045;-70
2023/01/09 02:52:21;;;;;;;3.63;1.20;;;;;;;4.71;92.86;99380.69;4871116;29;20153;-69
2023/01/09 02:54:57;;;;;;;3.63;1.00;;;;;;;4.67;93.01;99381.69;4863946;29;20774;-69
2023/01/09 02:57:45;;;;;;;2.65;1.00;;;;;;;4.65;93.07;99392.16;4870630;29;20853;-69
2023/01/09 03:00:43;;;;;;;3.55;1.10;;;;;;;4.63;93.21;99385.28;4870947;29;20076;-69
2023/01/09 03:03:29;;;;;;;4.95;1.35;;;;;;;4.62;93.42;99383.56;4872405;29;20050;-69
2023/01/09 03:06:14;;;;;;;2.97;1.40;;;;;;;4.61;93.44;99381.84;4872156;29;20045;-68
2023/01/09 03:08:53;;;;;;;5.03;1.40;;;;;;;4.60;93.49;99386.22;4869759;29;20042;-69
2023/01/09 03:11:21;;;;;;;5.15;1.70;;;;;;;4.56;93.66;99381.97;4858715;29;20053;-70
2023/01/09 03:13:58;;;;;;;5.20;1.52;;;;;;;4.57;93.57;99382.84;4861823;29;20111;-69
2023/01/09 03:16:36;;;;;;;6.28;2.33;;;;;;;4.56;93.80;99375.91;4861987;29;20076;-69
2023/01/09 03:19:11;;;;;;;6.15;1.90;;;;;;;4.53;93.96;99374.22;4872857;29;20558;-68
2023/01/09 03:21:41;;;;;;;4.60;1.77;;;;;;;4.52;93.80;99382.97;4862503;29;20054;-68
2023/01/09 03:24:08;;;;;;;4.88;1.70;;;;;;;4.51;93.94;99379.50;4864981;29;20049;-69
2023/01/09 03:26:35;;;;;;;4.47;1.85;;;;;;;4.50;94.09;99374.34;4864303;29;20050;-69
2023/01/09 03:29:03;;;;;;;4.88;1.80;;;;;;;4.51;94.19;99384.72;4868724;29;20071;-69
2023/01/09 03:31:30;;;;;;;5.68;1.60;;;;;;;4.51;94.37;99376.06;4860054;29;20906;-68
2023/01/09 03:33:57;;;;;;;4.70;2.10;;;;;;;4.49;94.36;99383.06;4872693;29;20537;-68
2023/01/09 03:36:24;;;;;;;4.72;1.83;;;;;;;4.48;94.49;99378.75;4859675;29;20049;-70
2023/01/09 03:38:51;;;;;;;5.97;1.88;;;;;;;4.45;94.13;99384.03;4870893;29;20050;-70
2023/01/09 03:41:19;;;;;;;9.02;2.22;;;;;;;4.44;94.58;99377.97;4865633;29;20966;-71
2023/01/09 03:43:47;;;;;;;4.20;1.73;;;;;;;4.42;94.68;99374.53;4872239;29;20912;-71
2023/01/09 03:46:16;;;;;;;4.55;1.80;;;;;;;4.43;94.80;99385.81;4870710;29;20132;-70
2023/01/09 03:48:43;;;;;;;4.22;1.70;;;;;;;4.38;94.85;99383.34;4872208;29;20038;-71
2023/01/09 03:51:10;;;;;;;4.65;1.92;;;;;;;4.37;94.96;99391.22;4870489;29;20828;-71
2023/01/09 03:53:37;;;;;;;8.10;2.22;;;;;;;4.35;94.88;99391.28;4860313;29;20052;-71
2023/01/09 03:56:05;;;;;;;6.53;1.92;;;;;;;4.35;95.09;99391.28;4865360;29;20494;-71
2023/01/09 03:58:32;;;;;;;5.28;1.90;;;;;;;4.32;94.96;99392.19;4861372;29;20566;-71
2023/01/09 04:01:02;;;;;;;4.68;2.00;;;;;;;4.31;95.24;99394.88;4872559;29;20551;-70
2023/01/09 04:03:30;;;;;;;3.72;1.90;;;;;;;4.30;95.19;99407.06;4871741;29;20096;-70
2023/01/09 04:05:57;;;;;;;6.85;1.90;;;;;;;4.31;95.20;99406.19;4871010;29;20136;-71
2023/01/09 04:08:24;;;;;;;4.30;1.90;;;;;;;4.31;95.37;99394.88;4869489;29;20044;-69
2023/01/09 04:10:51;;;;;;;5.15;2.13;;;;;;;4.29;95.38;99389.69;4864775;29;20038;-68
2023/01/09 04:13:18;;;;;;;6.15;2.00;;;;;;;4.28;95.49;99395.81;4860836;29;20157;-68
2023/01/09 04:15:45;;;;;;;5.15;2.20;;;;;;;4.26;95.41;99387.16;4860990;29;20045;-69
2023/01/09 04:18:14;;;;;;;4.75;1.92;;;;;;;4.25;95.49;99390.66;4869957;29;20057;-69
2023/01/09 04:20:41;;;;;;;6.15;2.05;;;;;;;4.25;95.66;99388.06;4868485;29;20777;-69
2023/01/09 04:23:08;;;;;;;7.38;2.25;;;;;;;4.24;95.62;99396.78;4869791;29;20046;-69
2023/01/09 04:25:35;;;;;;;5.78;1.90;;;;;;;4.27;95.79;99401.09;4868133;29;20047;-70
2023/01/09 04:28:02;;;;;;;7.13;2.03;;;;;;;4.27;95.96;99401.94;4870850;29;20141;-69
2023/01/09 04:30:29;;;;;;;6.03;2.00;;;;;;;4.28;96.28;99401.03;4875245;29;20047;-69
2023/01/09 04:32:56;;;;;;;4.25;2.05;;;;;;;4.31;96.23;99405.31;4871475;29;20042;-69
2023/01/09 04:35:23;;;;;;;3.97;2.08;;;;;;;4.37;96.44;99405.16;4872236;29;20491;-68
2023/01/09 04:37:50;;;;;;;4.95;1.80;;;;;;;4.46;96.66;99399.66;4871626;29;20495;-68
2023/01/09 04:40:18;;;;;;;5.05;1.70;;;;;;;4.56;96.84;99400.25;4868674;29;20054;-69
2023/01/09 04:42:45;;;;;;;8.77;2.08;;;;;;;4.68;96.95;99398.19;4870851;29;20050;-69
2023/01/09 04:45:14;;;;;;;9.00;2.40;;;;;;;4.77;96.86;99413.59;4875490;29;20440;-70
2023/01/09 04:47:42;;;;;;;5.75;1.58;;;;;;;4.79;96.34;99398.72;4867108;29;20042;-69
2023/01/09 04:50:11;;;;;;;3.83;1.60;;;;;;;4.81;96.19;99405.63;4869964;29;20074;-69
2023/01/09 04:52:38;;;;;;;5.70;1.65;;;;;;;4.84;96.20;99409.03;4873634;29;20050;-70
2023/01/09 04:55:07;;;;;;;6.63;1.70;;;;;;;4.86;96.00;99404.63;4863850;29;20045;-69
2023/01/09 04:57:35;;;;;;;7.28;1.63;;;;;;;4.90;96.17;99403.63;4869146;29;20061;-69
2023/01/09 05:00:08;;;;;;;4.28;1.45;;;;;;;4.96;96.21;99406.06;4874901;29;20511;-69
2023/01/09 05:02:37;;;;;;;4.18;1.50;;;;;;;5.01;96.11;99409.38;4871080;29;20086;-70
2023/01/09 05:05:06;;;;;;;5.30;1.30;;;;;;;5.07;95.97;99404.00;4875681;29;20046;-69
2023/01/09 05:07:37;;;;;;;4.07;1.58;;;;;;;5.13;96.02;99400.34;4868150;29;20045;-70
2023/01/09 05:10:06;;;;;;;5.55;1.40;;;;;;;5.20;95.91;99403.59;4873744;29;20050;-69
2023/01/09 05:12:35;;;;;;;6.88;1.42;;;;;;;5.27;95.84;99408.59;4869471;29;20675;-69
2023/01/09 05:15:05;;;;;;;5.40;1.13;;;;;;;5.35;95.69;99410.09;4868771;29;20042;-69
2023/01/09 05:17:32;;;;;;;7.07;1.25;;;;;;;5.41;95.53;99412.53;4873332;29;20106;-69
2023/01/09 05:20:02;;;;;;;8.95;1.40;;;;;;;5.45;95.45;99414.13;4873045;29;20095;-69
2023/01/09 05:22:29;;;;;;;5.35;1.55;;;;;;;5.51;95.38;99416.56;4863621;29;20440;-69
2023/01/09 05:24:56;;;;;;;5.07;1.40;;;;;;;5.55;95.03;99414.69;4861904;29;20057;-69
2023/01/09 05:27:26;;;;;;;6.10;1.40;;;;;;;5.61;95.17;99409.25;4871184;29;20134;-69
2023/01/09 05:29:53;;;;;;;5.18;1.40;;;;;;;5.64;95.05;99403.94;4867630;29;20629;-69
2023/01/09 05:32:20;;;;;;;9.82;1.35;;;;;;;5.69;94.74;99409.00;4869383;29;20048;-68
2023/01/09 05:34:47;;;;;;;7.15;1.25;;;;;;;5.71;94.69;99407.22;4869578;29;20054;-69
2023/01/09 05:37:14;;;;;;;5.80;1.20;;;;;;;5.72;94.57;99401.91;4867619;29;20042;-69
2023/01/09 05:39:41;;;;;;;4.15;1.42;;;;;;;5.77;94.55;99400.91;4863516;29;20797;-69
2023/01/09 05:42:08;;;;;;;5.53;1.58;;;;;;;5.85;94.54;99404.97;4865727;29;20070;-69
2023/01/09 05:44:35;;;;;;;4.55;1.30;;;;;;;5.93;94.75;99407.34;4863553;29;20133;-68
2023/01/09 05:47:02;;;;;;;5.18;1.40;;;;;;;6.02;94.64;99407.03;4863793;29;20050;-70
2023/01/09 05:49:29;;;;;;;5.50;1.10;;;;;;;6.13;94.41;99405.81;4867725;29;20052;-69
2023/01/09 05:51:56;;;;;;;6.13;1.23;;;;;;;6.20;94.15;99395.09;4862134;29;20053;-69
2023/01/09 05:54:23;;;;;;;5.25;1.20;;;;;;;6.26;94.23;99394.03;4866992;29;20056;-69
2023/01/09 05:56:50;;;;;;;6.05;1.60;;;;;;;6.28;93.32;99389.59;4866297;29;20061;-69
2023/01/09 05:59:17;;;;;;;3.42;0.93;;;;;;;6.33;93.19;99394.66;4863649;29;20077;-70
2023/01/09 06:01:44;;;;;;;4.95;1.30;;;;;;;6.40;93.22;99384.84;4858958;29;20053;-69
2023/01/09 06:04:11;;;;;;;5.60;1.20;;;;;;;6.48;92.98;99388.00;4869509;29;20557;-69
2023/01/09 06:06:41;;;;;;;6.63;1.23;;;;;;;6.57;92.58;99394.66;4874849;29;20446;-69
2023/01/09 06:09:08;;;;;;;5.50;0.95;;;;;;;6.62;91.83;99397.97;4870245;29;20045;-70
2023/01/09 06:11:37;;;;;;;9.32;1.17;;;;;;;6.66;91.73;99395.19;4865336;29;20042;-72
2023/01/09 06:14:05;;;;;;;9.40;1.27;;;;;;;6.72;91.10;99385.38;4860726;29;20065;-71
2023/01/09 06:16:33;;;;;;;4.90;1.00;;;;;;;6.79;90.71;99386.88;4885547;29;20050;-70
2023/01/09 06:19:00;;;;;;;7.75;1.20;;;;;;;6.79;90.19;99382.47;4869377;29;20053;-71
2023/01/09 06:21:28;;;;;;;5.45;1.10;;;;;;;6.80;90.10;99386.81;4865210;29;20042;-68
2023/01/09 06:23:55;;;;;;;6.97;1.10;;;;;;;6.73;89.76;99387.97;4865027;29;20046;-69
2023/01/09 06:26:26;;;;;;;6.25;1.25;;;;;;;6.65;89.45;99380.38;4867383;29;20048;-69
2023/01/09 06:28:54;;;;;;;5.95;1.20;;;;;;;6.57;89.69;99389.41;4865645;29;20045;-69
2023/01/09 06:31:23;;;;;;;5.53;1.27;;;;;;;6.51;89.59;99388.75;4865606;29;20060;-69
2023/01/09 06:33:51;;;;;;;5.35;1.20;;;;;;;6.48;89.54;99390.63;4859946;29;20308;-70
2023/01/09 06:36:18;;;;;;;5.70;1.27;;;;;;;6.45;89.94;99390.75;4863016;29;20050;-70
2023/01/09 06:38:48;;;;;;;8.20;1.40;;;;;;;6.42;89.71;99389.09;4868293;29;20098;-70
2023/01/09 06:41:16;;;;;;;5.90;1.15;;;;;;;6.41;89.97;99387.38;4860819;29;20045;-71
2023/01/09 06:43:43;;;;;;;6.78;1.10;;;;;;;6.40;89.91;99385.66;4853789;29;20057;-70
2023/01/09 06:46:10;;;;;;;8.57;1.33;;;;;;;6.41;90.04;99379.53;4855401;29;20091;-70
2023/01/09 06:48:37;;;;;;;6.65;1.35;;;;;;;6.42;90.23;99382.97;4867442;29;20049;-70
2023/01/09 06:51:04;;;;;;;7.15;1.00;;;;;;;6.42;90.11;99389.09;4856297;29;20911;-70
2023/01/09 06:53:32;;;;;;;5.18;1.23;;;;;;;6.44;90.19;99389.03;4871412;29;20080;-70
2023/01/09 06:56:00;;;;;;;7.43;1.40;;;;;;;6.43;90.16;99393.41;4865845;29;20041;-70
2023/01/09 06:58:27;;;;;;;5.30;1.25;;;;;;;6.46;90.13;99395.91;4869720;29;20049;-70
2023/01/09 07:00:55;;;;;;;5.53;1.15;;;;;;;6.46;90.40;99393.28;4867593;29;20422;-71
2023/01/09 07:03:22;;;;;;;7.95;1.60;;;;;;;6.48;90.28;99390.63;4871637;29;20053;-70
2023/01/09 07:05:49;;;;;;;7.63;1.55;;;;;;;6.46;90.16;99389.84;4859813;29;20153;-71
2023/01/09 07:08:16;;;;;;;6.60;1.38;;;;;;;6.46;90.41;99397.69;4857184;29;20087;-70
2023/01/09 07:10:44;;;;;;;6.88;1.40;;;;;;;6.47;90.61;99394.16;4857691;29;20050;-70
2023/01/09 07:13:11;;;;;;;6.88;1.20;;;;;;;6.48;90.48;99394.09;4866772;29;20058;-71
2023/01/09 07:15:38;;;;;;;4.97;1.30;;;;;;;6.45;90.71;99391.59;4861681;29;20077;-71
2023/01/09 07:18:05;;;;;;;6.95;1.75;;;;;;;6.47;90.87;99391.53;4857434;29;20053;-71
2023/01/09 07:20:32;;;;;;;11.10;1.75;;;;;;;6.46;91.25;99389.84;4867184;29;20114;-71
2023/01/09 07:22:59;;;;;;;11.07;2.13;;;;;;;6.44;91.27;99384.66;4872687;29;20046;-71
2023/01/09 07:25:26;;;;;;;7.53;2.08;;;;;;;6.44;91.57;99386.41;4864614;29;20753;-71
2023/01/09 07:27:53;;;;;;;4.38;1.33;;;;;;;6.44;91.48;99387.28;4861661;29;20077;-70
2023/01/09 07:30:20;;;;;;;9.75;1.70;;;;;;;6.45;91.66;99377.66;4863708;29;20052;-73
2023/01/09 07:32:47;;;;;;;7.93;1.48;;;;;;;6.45;92.00;99381.13;4867420;29;20085;-71
2023/01/09 07:35:14;;;;;;;7.38;1.65;;;;;;;6.47;91.85;99386.31;4869852;29;20128;-71
2023/01/09 07:37:41;;;;;;;9.00;1.63;;;;;;;6.49;92.07;99389.72;4861792;29;20062;-71
2023/01/09 07:40:09;;;;;;;8.18;1.40;;;;;;;6.51;91.93;99386.13;4857816;29;20046;-71
2023/01/09 07:42:36;;;;;;;9.30;1.60;;;;;;;6.53;91.91;99389.56;4857898;29;20049;-72
2023/01/09 07:45:05;;;;;;;7.20;1.70;;;;;;;6.55;92.09;99394.72;4868807;29;20041;-72
2023/01/09 07:47:32;;;;;;;11.48;1.55;;;;;;;6.59;91.67;99398.09;4865354;29;20053;-71
2023/01/09 07:49:59;;;;;;;13.95;1.90;;;;;;;6.60;91.56;99397.16;4869129;29;20045;-71
2023/01/09 07:52:26;;;;;;;7.30;1.40;;;;;;;6.61;91.73;99399.75;4871083;29;20714;-72
2023/01/09 07:54:53;;;;;;;7.50;1.48;;;;;;;6.63;91.82;99408.38;4857317;29;20074;-71
2023/01/09 07:57:22;;;;;;;6.75;1.60;;;;;;;6.64;91.78;99404.03;4865144;29;20698;-71
2023/01/09 07:59:49;;;;;;;8.07;1.77;;;;;;;6.66;91.92;99421.38;4873864;29;20050;-71
2023/01/09 08:02:17;;;;;;;4.70;1.83;;;;;;;6.72;91.68;99419.44;4861331;29;20500;-71
2023/01/09 08:04:44;;;;;;;8.35;2.10;;;;;;;6.72;91.35;99430.78;4871590;29;20113;-71
2023/01/09 08:07:11;;;;;;;8.57;1.77;;;;;;;6.71;91.46;99429.06;4875812;29;20042;-71
2023/01/09 08:09:38;;;;;;;12.00;2.00;;;;;;;6.74;91.51;99430.72;4863787;29;20042;-71
2023/01/09 08:12:05;;;;;;;4.95;1.95;;;;;;;6.74;91.34;99433.31;4860767;29;20180;-70
2023/01/09 08:14:32;;;;;;;8.60;1.52;;;;;;;6.75;91.75;99437.66;4857091;29;20073;-70
2023/01/09 08:16:59;;;;;;;9.45;1.80;;;;;;;6.75;91.62;99442.91;4864396;29;20105;-70
2023/01/09 08:19:26;;;;;;;8.95;1.75;;;;;;;6.76;91.57;99447.22;4863308;29;20070;-70
2023/01/09 08:21:53;;;;;;;10.20;2.00;;;;;;;6.76;91.61;99440.25;4869447;29;20098;-70
2023/01/09 08:24:20;;;;;;;6.50;1.80;;;;;;;6.75;91.65;99449.00;4867751;29;20057;-71
2023/01/09 08:26:47;;;;;;;8.00;1.80;;;;;;;6.77;91.75;99448.94;4868104;29;20049;-71
2023/01/09 08:29:14;;;;;;;6.22;1.80;;;;;;;6.79;91.94;99454.97;4867901;29;20054;-70
2023/01/09 08:31:41;;;;;;;9.48;1.50;;;;;;;6.79;91.83;99461.06;4875020;29;20049;-70
2023/01/09 08:34:08;;;;;;;9.25;1.63;;;;;;;6.81;92.07;99459.25;4874212;29;20046;-70
2023/01/09 08:36:35;;;;;;;7.07;2.00;;;;;;;6.83;91.76;99465.28;4868650;29;20049;-71
2023/01/09 08:39:02;;;;;;;8.38;1.58;;;;;;;6.84;91.79;99474.00;4865734;29;20044;-71
2023/01/09 08:47:06;;;;;;;9.75;1.55;;;;;;;6.92;91.29;99478.94;4857149;29;20110;-70
2023/01/09 08:49:36;;;;;;;6.18;1.55;;;;;;;6.96;90.97;99478.78;4856290;29;20083;-70
2023/01/09 08:52:06;;;;;;;6.15;1.25;;;;;;;7.01;90.61;99489.09;4856142;29;20046;-71
2023/01/09 08:54:35;;;;;;;6.15;1.30;;;;;;;7.05;90.22;99490.69;4860676;29;20042;-71
2023/01/09 08:57:02;;;;;;;7.95;1.30;;;;;;;7.07;89.95;99494.09;4867374;29;20045;-71
2023/01/09 08:59:29;;;;;;;8.05;2.13;;;;;;;7.08;89.93;99498.44;4873859;29;20068;-70
2023/01/09 09:01:57;;;;;;;7.47;1.40;;;;;;;7.12;89.30;99501.81;4856948;29;20053;-71
2023/01/09 09:04:24;;;;;;;10.18;1.70;;;;;;;7.11;89.52;99511.41;4856986;29;20049;-71
2023/01/09 09:06:51;;;;;;;7.78;1.40;;;;;;;7.17;89.58;99512.13;4856573;29;20091;-71
2023/01/09 09:09:18;;;;;;;3.95;1.33;;;;;;;7.24;89.12;99511.81;4859655;29;20081;-70
2023/01/09 09:11:45;;;;;;;7.68;1.63;;;;;;;7.35;88.73;99516.66;4856402;29;20433;-71
2023/01/09 09:16:58;;;;;;;6.53;1.30;;;;;;;7.52;88.11;99529.13;4874979;29;20079;-70
2023/01/09 09:19:25;;;;;;;7.35;1.17;;;;;;;7.53;87.55;99543.09;4875154;29;21173;-70
2023/01/09 09:21:52;;;;;;;6.72;1.63;;;;;;;7.52;87.49;99554.50;4875151;29;20052;-71
2023/01/09 09:24:19;;;;;;;6.07;1.60;;;;;;;7.49;87.78;99551.97;4875454;29;20049;-70
2023/01/09 09:26:46;;;;;;;5.10;1.48;;;;;;;7.47;87.97;99557.28;4873641;29;20090;-71
2023/01/09 09:29:13;;;;;;;6.10;1.58;;;;;;;7.44;88.09;99558.25;4863575;29;20058;-70
2023/01/09 09:31:40;;;;;;;4.60;1.35;;;;;;;7.44;88.08;99563.50;4863776;29;20056;-71
2023/01/09 09:34:07;;;;;;;3.70;1.30;;;;;;;7.46;88.22;99566.06;4872519;29;20045;-71
2023/01/09 09:36:34;;;;;;;4.70;1.30;;;;;;;7.50;87.92;99579.91;4872383;29;20045;-72
2023/01/09 09:39:02;;;;;;;5.57;1.45;;;;;;;7.55;87.91;99580.59;4873576;29;20948;-71
2023/01/09 09:45:00;;;;;;;5.55;1.70;;;;;;;7.62;87.86;99592.56;4874782;29;20056;-70
2023/01/09 09:47:47;;;;;;;4.95;1.60;;;;;;;7.66;87.27;99588.94;4864864;29;20046;-72
2023/01/09 09:50:45;;;;;;;5.57;1.70;;;;;;;7.59;87.81;99604.03;4873797;29;20501;-71
2023/01/09 09:53:40;;;;;;;4.18;1.60;;;;;;;7.53;88.15;99601.63;4869470;29;20118;-72
2023/01/09 09:56:15;;;;;;;5.80;1.48;;;;;;;7.51;88.52;99606.09;4873370;29;20055;-71
2023/01/09 09:58:53;;;;;;;6.00;1.85;;;;;;;7.53;88.38;99609.50;4864478;29;20042;-72
2023/01/09 10:01:35;;;;;;;16.63;11.10;;;;;;;7.61;88.28;99612.72;4855697;29;20046;-71
2023/01/09 10:04:10;;;;;;;5.40;1.92;;;;;;;7.82;88.16;99614.56;4866614;29;20053;-71
2023/01/09 10:06:49;;;;;;;9.80;6.90;;;;;;;7.93;88.06;99626.38;4868844;29;20484;-72
2023/01/09 10:09:35;;;;;;;9.30;6.45;;;;;;;7.91;87.16;99630.81;4856041;29;20052;-71
2023/01/09 10:12:16;;;;;;;5.43;2.60;;;;;;;7.86;87.18;99639.78;4855047;29;20045;-73
2023/01/09 10:14:43;;;;;;;6.75;3.08;;;;;;;7.85;87.22;99641.53;4855458;29;20057;-71
2023/01/09 10:17:37;;;;;;;5.47;1.83;;;;;;;7.89;86.95;99655.38;4862894;29;20056;-72
2023/01/09 10:21:03;;;;;;;8.38;4.32;;;;;;;7.96;87.00;99650.75;4870676;29;20053;-71
2023/01/09 10:23:44;;;;;;;5.47;2.27;;;;;;;7.96;86.57;99659.50;4834419;29;20133;-73
2023/01/09 10:26:44;;;;;;;7.82;2.78;;;;;;;7.99;86.58;99663.78;4850856;29;20054;-72
2023/01/09 10:29:41;;;;;;;4.03;1.98;;;;;;;8.00;86.37;99663.69;4853850;29;20070;-72
2023/01/09 10:32:33;;;;;;;5.30;1.90;;;;;;;8.06;86.37;99655.63;4858282;29;20908;-71
2023/01/09 10:35:51;;;;;;;6.85;2.30;;;;;;;8.13;86.68;99663.22;4856502;29;20042;-71
2023/01/09 10:38:34;;;;;;;17.27;10.35;;;;;;;8.12;87.22;99654.53;4867181;29;20137;-72
2023/01/09 10:41:29;;;;;;;12.43;7.43;;;;;;;8.16;86.52;99668.38;4855844;29;20050;-73
2023/01/09 10:44:07;;;;;;;7.30;2.78;;;;;;;8.14;86.36;99657.91;4867881;29;20041;-72
2023/01/09 10:46:44;;;;;;;9.70;3.47;;;;;;;8.11;86.38;99670.31;4872966;29;20056;-73
2023/01/09 10:49:23;;;;;;;8.98;3.72;;;;;;;8.09;86.03;99663.34;4873535;29;20037;-72
2023/01/09 10:52:15;;;;;;;10.15;5.25;;;;;;;8.12;85.41;99677.28;4869034;29;20530;-72
2023/01/09 10:55:01;;;;;;;8.30;3.20;;;;;;;8.10;85.24;99674.72;4870532;29;20050;-71
2023/01/09 10:57:44;;;;;;;6.30;3.17;;;;;;;8.07;84.95;99687.94;4886375;29;20133;-73
2023/01/09 11:00:19;;;;;;;6.38;3.55;;;;;;;8.09;85.00;99681.72;4872063;29;20051;-73
2023/01/09 11:02:52;;;;;;;7.00;5.05;;;;;;;8.13;85.09;99689.50;4856588;29;20486;-71
2023/01/09 11:05:29;;;;;;;4.68;3.63;;;;;;;8.07;84.78;99686.19;4855899;29;20087;-73
2023/01/09 11:08:10;;;;;;;8.55;5.75;;;;;;;8.03;84.46;99684.59;4871469;29;20130;-72
2023/01/09 11:10:47;;;;;;;11.38;3.03;;;;;;;8.06;83.65;99689.75;4861344;29;20046;-72
2023/01/09 11:13:30;;;;;;;7.28;4.15;;;;;;;8.21;83.95;99679.53;4866643;29;20089;-73
2023/01/09 11:16:20;;;;;;;4.63;3.13;;;;;;;8.32;83.83;99694.88;4871916;29;20049;-72
2023/01/09 11:18:59;;;;;;;6.50;2.97;;;;;;;8.34;83.43;99696.53;4873373;29;20141;-71
2023/01/09 11:21:31;;;;;;;7.25;3.00;;;;;;;8.30;83.00;99694.94;4870023;29;20049;-73
2023/01/09 11:24:20;;;;;;;8.02;3.00;;;;;;;8.24;83.03;99695.19;4868088;29;20150;-72
2023/01/09 11:27:12;;;;;;;5.85;3.00;;;;;;;8.19;83.64;99700.63;4868824;29;20121;-71
2023/01/09 11:29:41;;;;;;;5.32;2.50;;;;;;;8.20;83.42;99704.06;4854483;29;20738;-72
2023/01/09 11:32:29;;;;;;;4.90;3.20;;;;;;;8.16;83.82;99707.75;4869956;29;20054;-71
2023/01/09 11:34:56;;;;;;;5.10;2.90;;;;;;;8.17;83.81;99707.69;4857612;29;20493;-72
2023/01/09 11:37:29;;;;;;;5.72;2.95;;;;;;;8.25;84.17;99715.28;4869752;29;20144;-70
2023/01/09 11:39:59;;;;;;;6.90;3.17;;;;;;;8.36;83.70;99720.09;4876091;29;20042;-70
2023/01/09 11:45:34;;;;;;;4.80;2.83;;;;;;;8.36;83.54;99726.22;4875031;29;20633;-72
2023/01/09 11:48:27;;;;;;;5.78;2.90;;;;;;;8.36;83.37;99726.22;4876007;29;20053;-72
2023/01/09 11:50:58;;;;;;;7.93;3.45;;;;;;;8.43;83.85;99733.84;4871157;29;20532;-71
2023/01/09 11:53:27;;;;;;;7.82;3.38;;;;;;;8.51;83.32;99729.19;4859520;29;20058;-71
2023/01/09 11:56:01;;;;;;;7.18;3.28;;;;;;;8.62;83.04;99726.97;4857823;29;20635;-71
2023/01/09 11:58:34;;;;;;;10.07;3.47;;;;;;;8.75;82.46;99731.75;4871767;29;20126;-72
2023/01/09 12:01:46;;;;;;;8.55;3.33;;;;;;;8.84;82.45;99728.75;4875123;29;20046;-72
2023/01/09 12:04:32;;;;;;;8.82;3.50;;;;;;;9.01;82.15;99735.94;4869792;29;20133;-72
2023/01/09 12:07:05;;;;;;;6.28;2.97;;;;;;;9.05;82.01;99744.56;4867348;29;20050;-72
2023/01/09 12:09:50;;;;;;;10.13;3.50;;;;;;;9.10;81.18;99739.97;4878638;29;20050;-72
2023/01/09 12:12:48;;;;;;;6.70;3.33;;;;;;;9.11;81.02;99739.91;4861688;29;20108;-74
2023/01/09 12:15:28;;;;;;;11.43;3.55;;;;;;;9.01;81.35;99739.41;4871017;29;20053;-73
2023/01/09 12:18:09;;;;;;;8.15;3.50;;;;;;;8.98;81.49;99738.69;4869584;29;20042;-72
2023/01/09 12:21:30;;;;;;;7.93;3.63;;;;;;;8.90;81.09;99746.91;4867445;29;20053;-72
2023/01/09 12:24:35;;;;;;;8.45;3.58;;;;;;;8.82;81.18;99748.97;4853690;29;20114;-70
2023/01/09 12:27:20;;;;;;;10.93;3.47;;;;;;;8.69;81.71;99746.00;4863135;29;20052;-71